createdAt,value
2019-04-30T00:00:03.135Z,92.70
2019-04-30T00:10:02.487Z,92.77
2019-04-30T00:20:08.050Z,92.92
2019-04-30T00:30:08.881Z,92.83
2019-04-30T00:40:02.947Z,92.66
2019-04-30T00:50:08.471Z,92.93
2019-04-30T01:00:04.673Z,92.96
2019-04-30T01:10:08.619Z,93.30
2019-04-30T01:20:02.997Z,93.03
2019-04-30T01:30:03.174Z,93.26
2019-04-30T01:40:08.016Z,93.48
2019-04-30T01:50:09.659Z,93.77
2019-04-30T02:00:03.488Z,94.14
2019-04-30T02:10:09.186Z,94.31
2019-04-30T02:20:02.657Z,94.43
2019-04-30T02:30:11.739Z,94.40
2019-04-30T02:40:02.955Z,94.32
2019-04-30T02:50:21.705Z,94.75
2019-04-30T03:00:03.205Z,94.92
2019-04-30T03:10:10.601Z,95.16
2019-04-30T03:20:03.965Z,95.52
2019-04-30T03:30:03.427Z,95.75
2019-04-30T03:40:02.491Z,96.01
2019-04-30T03:50:03.288Z,96.24
2019-04-30T04:00:03.677Z,96.39
2019-04-30T04:10:10.611Z,96.32
2019-04-30T04:20:02.986Z,96.20
2019-04-30T04:30:03.542Z,96.04
2019-04-30T04:40:02.655Z,96.09
2019-04-30T04:50:02.391Z,96.09
2019-04-30T05:00:10.379Z,96.16
2019-04-30T05:10:02.871Z,95.96
2019-04-30T05:20:02.713Z,95.82
2019-04-30T05:30:02.976Z,95.65
2019-04-30T05:40:02.841Z,95.85
2019-04-30T05:50:02.601Z,96.04
2019-04-30T06:00:03.013Z,96.22
2019-04-30T06:10:02.692Z,96.49
2019-04-30T06:20:02.616Z,96.59
2019-04-30T06:30:12.298Z,96.90
2019-04-30T06:40:02.548Z,97.01
2019-04-30T06:50:09.954Z,96.86
2019-04-30T07:00:03.678Z,96.78
2019-04-30T07:10:02.661Z,97.02
2019-04-30T07:20:03.075Z,97.18
2019-04-30T07:30:03.337Z,97.16
2019-04-30T07:40:02.349Z,97.08
2019-04-30T07:50:03.006Z,96.89
2019-04-30T08:00:03.389Z,96.82
2019-04-30T08:10:09.163Z,96.84
2019-04-30T08:20:02.637Z,96.69
2019-04-30T08:30:26.620Z,96.68
2019-04-30T08:40:03.954Z,96.54
2019-04-30T08:50:03.592Z,96.60
2019-04-30T09:00:03.522Z,96.32
2019-04-30T09:10:05.321Z,95.96
2019-04-30T09:20:09.490Z,94.90
2019-04-30T09:30:03.297Z,92.45
2019-04-30T09:40:18.381Z,92.69
2019-04-30T09:50:03.013Z,91.84
2019-04-30T10:00:03.278Z,91.48
2019-04-30T10:10:02.748Z,89.78
2019-04-30T10:20:02.853Z,87.35
2019-04-30T10:30:03.120Z,81.85
2019-04-30T10:40:02.923Z,83.83
2019-04-30T10:50:10.320Z,81.58
2019-04-30T11:00:03.031Z,78.84
2019-04-30T11:10:09.119Z,67.00
2019-04-30T11:20:03.024Z,77.86
2019-04-30T11:30:04.744Z,75.34
2019-04-30T11:40:03.312Z,64.81
2019-04-30T11:50:08.479Z,56.70
2019-04-30T12:00:03.295Z,60.37
2019-04-30T12:10:09.891Z,53.78
2019-04-30T12:20:03.277Z,54.94
2019-04-30T12:30:03.440Z,56.06
2019-04-30T12:40:03.202Z,52.66
2019-04-30T12:50:03.120Z,53.12
2019-04-30T13:00:03.381Z,52.48
2019-04-30T13:10:04.477Z,51.19
2019-04-30T13:20:03.110Z,51.78
2019-04-30T13:30:03.473Z,52.30
2019-04-30T13:40:02.631Z,53.38
2019-04-30T13:50:02.612Z,49.73
2019-04-30T14:00:02.849Z,50.45
2019-04-30T14:10:10.532Z,47.30
2019-04-30T14:20:02.910Z,48.95
2019-04-30T14:30:03.115Z,51.50
2019-04-30T14:40:13.384Z,48.40
2019-04-30T14:50:10.203Z,51.71
2019-04-30T15:00:03.423Z,53.50
2019-04-30T15:10:08.441Z,55.23
2019-04-30T15:20:09.185Z,52.80
2019-04-30T15:30:02.892Z,54.36
2019-04-30T15:40:02.576Z,53.44
2019-04-30T15:50:03.258Z,54.17
2019-04-30T16:00:03.737Z,55.41
2019-04-30T16:10:02.725Z,53.98
2019-04-30T16:20:02.703Z,54.78
2019-04-30T16:30:03.088Z,54.89
2019-04-30T16:40:02.997Z,54.21
2019-04-30T16:50:02.814Z,54.65
2019-04-30T17:00:03.127Z,54.80
2019-04-30T17:10:02.827Z,55.72
2019-04-30T17:20:03.031Z,57.00
2019-04-30T17:30:03.343Z,57.35
2019-04-30T17:40:09.840Z,58.49
2019-04-30T17:50:03.107Z,59.39
2019-04-30T18:00:19.246Z,60.38
2019-04-30T18:10:02.339Z,61.18
2019-04-30T18:20:03.272Z,61.59
2019-04-30T18:30:03.537Z,62.17
2019-04-30T18:40:02.678Z,62.77
2019-04-30T18:50:02.399Z,63.84
2019-04-30T19:00:03.706Z,63.43
2019-04-30T19:10:02.681Z,63.96
2019-04-30T19:20:02.636Z,69.19
2019-04-30T19:30:02.914Z,69.81
2019-04-30T19:40:03.210Z,71.17
2019-04-30T19:50:02.947Z,72.62
2019-04-30T20:00:03.213Z,72.99
2019-04-30T20:10:04.707Z,73.16
2019-04-30T20:20:09.408Z,73.58
2019-04-30T20:30:03.089Z,74.50
2019-04-30T20:40:02.833Z,74.22
2019-04-30T20:50:02.799Z,74.19
2019-04-30T21:00:03.066Z,74.90
2019-04-30T21:10:10.720Z,74.83
2019-04-30T21:20:02.867Z,74.88
2019-04-30T21:30:04.059Z,75.21
2019-04-30T21:40:03.637Z,75.59
2019-04-30T21:50:02.775Z,75.57
2019-04-30T22:00:03.100Z,75.78
2019-04-30T22:10:03.002Z,75.53
2019-04-30T22:20:03.050Z,75.89
2019-04-30T22:30:03.306Z,76.30
2019-04-30T22:40:03.184Z,77.04
2019-04-30T22:50:08.515Z,77.39
2019-04-30T23:00:03.198Z,78.32
2019-04-30T23:10:02.503Z,79.38
2019-04-30T23:20:02.393Z,80.77
2019-04-30T23:30:04.320Z,81.25
2019-04-30T23:40:08.374Z,82.13
2019-04-30T23:50:07.984Z,82.91
